Rock Springs, Wisconsin
Current Conditions -  °F | °C
As of 1:15 AM on Thursday 18 Dec 2014 (Local Time) from KC35 Reporting Station
Overcast Overcast  
Wind Chill: 18°   Ceiling: 1800
Heat Index: 18°   Visibility: 10mi
Dew Point: 15°   Wind: 0mph
Humidity: 86%   Direction: NA
Pressure: 30.27"   Gusts: NA
Location:  43.49°N, 89.92°W
Report Text: KC35 180715Z AUTO 00000KT 10SM OVC018 M08/M10 A3027 RMK AO2 T10781097
Loading
Personal Weather Stations






























Interactive Weather Map New forecast layout! Learn more

10-Day Weather Forecast

Advertisements
Track Severe Weather on mobile